createdAt,value
2023-04-25T00:05:01.008Z,100069.21
2023-04-25T00:10:29.015Z,100066.31
2023-04-25T00:15:55.237Z,100066.33
2023-04-25T00:21:21.154Z,100062.59
2023-04-25T00:26:47.106Z,100061.00
2023-04-25T00:32:12.864Z,100063.41
2023-04-25T00:37:38.696Z,100060.55
2023-04-25T00:42:58.359Z,100060.09
2023-04-25T00:48:25.565Z,100058.65
2023-04-25T00:53:51.971Z,100056.08
2023-04-25T00:59:18.876Z,100055.30
2023-04-25T01:04:44.666Z,100051.79
2023-04-25T01:10:12.591Z,100050.79
2023-04-25T01:15:38.407Z,100047.39
2023-04-25T01:21:05.159Z,100047.27
2023-04-25T01:26:32.173Z,100042.11
2023-04-25T01:31:58.384Z,100042.30
2023-04-25T01:37:24.194Z,100046.81
2023-04-25T01:42:50.046Z,100048.48
2023-04-25T01:48:15.836Z,100040.66
2023-04-25T01:53:41.948Z,100038.80
2023-04-25T01:59:07.969Z,100043.76
2023-04-25T02:04:33.929Z,100046.82
2023-04-25T02:09:59.718Z,100049.66
2023-04-25T02:15:27.242Z,100046.30
2023-04-25T02:20:53.205Z,100043.47
2023-04-25T02:26:19.658Z,100042.73
2023-04-25T02:31:45.709Z,100042.51
2023-04-25T02:37:12.207Z,100039.14
2023-04-25T02:42:38.077Z,100044.63
2023-04-25T02:48:03.893Z,100044.79
2023-04-25T02:53:29.913Z,100042.61
2023-04-25T02:58:55.656Z,100049.38
2023-04-25T03:04:13.892Z,100047.23
2023-04-25T03:09:40.002Z,100046.00
2023-04-25T03:15:05.910Z,100046.04
2023-04-25T03:20:33.487Z,100046.85
2023-04-25T03:25:59.489Z,100048.96
2023-04-25T03:31:25.385Z,100049.48
2023-04-25T03:36:51.202Z,100050.08
2023-04-25T03:42:16.921Z,100049.55
2023-04-25T03:47:42.978Z,100049.11
2023-04-25T03:53:08.780Z,100059.05
2023-04-25T03:58:34.784Z,100057.98
2023-04-25T04:04:00.827Z,100060.43
2023-04-25T04:09:26.884Z,100063.75
2023-04-25T04:14:52.639Z,100071.23
2023-04-25T04:20:18.977Z,100078.98
2023-04-25T04:25:44.938Z,100081.52
2023-04-25T04:31:10.774Z,100084.17
2023-04-25T04:36:35.631Z,100087.59
2023-04-25T04:42:01.753Z,100092.27
2023-04-25T04:47:27.710Z,100094.20
2023-04-25T04:52:53.524Z,100094.44
2023-04-25T04:58:19.442Z,100097.95
2023-04-25T05:03:45.277Z,100095.82
2023-04-25T05:09:10.118Z,100097.70
2023-04-25T05:14:35.914Z,100103.77
2023-04-25T05:20:01.946Z,100106.96
2023-04-25T05:25:21.605Z,100105.79
2023-04-25T05:30:47.460Z,100110.91
2023-04-25T05:36:13.556Z,100108.71
2023-04-25T05:41:39.374Z,100113.04
2023-04-25T05:47:05.288Z,100114.16
2023-04-25T05:52:29.660Z,100122.27
2023-04-25T05:57:55.742Z,100125.95
2023-04-25T06:03:21.678Z,100127.78
2023-04-25T06:08:46.846Z,100132.99
2023-04-25T06:14:12.792Z,100140.28
2023-04-25T06:19:39.035Z,100143.48
2023-04-25T06:25:05.091Z,100146.49
2023-04-25T06:30:32.772Z,100148.13
2023-04-25T06:35:58.570Z,100147.75
2023-04-25T06:41:24.364Z,100148.81
2023-04-25T06:46:50.705Z,100147.77
2023-04-25T06:52:16.576Z,100151.51
2023-04-25T06:57:42.326Z,100156.61
2023-04-25T07:03:08.451Z,100153.23
2023-04-25T07:08:34.306Z,100158.73
2023-04-25T07:14:00.429Z,100166.73
2023-04-25T07:19:26.743Z,100171.55
2023-04-25T07:24:51.201Z,100175.55
2023-04-25T07:30:17.121Z,100181.20
2023-04-25T07:35:42.935Z,100187.12
2023-04-25T07:41:09.885Z,100191.59
2023-04-25T07:46:35.708Z,100200.67
2023-04-25T07:52:01.682Z,100203.85
2023-04-25T07:57:26.098Z,100207.98
2023-04-25T08:02:52.092Z,100214.27
2023-04-25T08:08:18.118Z,100221.38
2023-04-25T08:13:43.922Z,100223.25
2023-04-25T08:19:10.055Z,100235.73
2023-04-25T08:24:37.988Z,100237.83
2023-04-25T08:30:05.570Z,100239.54
2023-04-25T08:35:31.919Z,100251.98
2023-04-25T08:41:00.707Z,100257.55
2023-04-25T08:46:27.370Z,100267.82
2023-04-25T08:51:54.132Z,100266.15
2023-04-25T08:57:21.971Z,100273.58
2023-04-25T09:02:48.930Z,100278.80
2023-04-25T09:08:14.855Z,100283.56
2023-04-25T09:13:48.016Z,100285.83
2023-04-25T09:19:13.893Z,100286.73
2023-04-25T09:24:51.008Z,100293.30
2023-04-25T09:30:20.839Z,100296.05
2023-04-25T09:35:49.954Z,100295.23
2023-04-25T09:41:15.804Z,100300.87
2023-04-25T09:46:46.534Z,100306.59
2023-04-25T09:52:18.532Z,100312.70
2023-04-25T09:57:45.652Z,100317.19
2023-04-25T10:03:13.064Z,100321.54
2023-04-25T10:08:40.006Z,100320.30
2023-04-25T10:14:06.874Z,100318.89
2023-04-25T10:19:32.999Z,100316.00
2023-04-25T10:24:52.787Z,100322.07
2023-04-25T10:30:24.712Z,100334.27
2023-04-25T10:35:51.559Z,100336.80
2023-04-25T10:41:27.772Z,100338.93
2023-04-25T10:46:55.756Z,100341.49
2023-04-25T10:52:40.090Z,100342.86
2023-04-25T10:58:09.662Z,100344.73
2023-04-25T11:03:42.941Z,100344.05
2023-04-25T11:09:11.522Z,100363.63
2023-04-25T11:14:30.314Z,100375.56
2023-04-25T11:19:56.233Z,100387.80
2023-04-25T11:25:27.916Z,100393.05
2023-04-25T11:30:53.712Z,100398.87
2023-04-25T11:36:19.773Z,100400.14
2023-04-25T11:41:46.869Z,100408.33
2023-04-25T11:47:12.651Z,100411.05
2023-04-25T11:52:38.750Z,100411.58
2023-04-25T11:58:06.499Z,100411.98
2023-04-25T12:03:32.404Z,100413.88
2023-04-25T12:08:58.334Z,100421.20
2023-04-25T12:14:25.771Z,100425.45
2023-04-25T12:19:56.560Z,100425.60
2023-04-25T12:25:20.806Z,100426.91
2023-04-25T12:30:46.775Z,100431.11
2023-04-25T12:36:13.351Z,100424.63
2023-04-25T12:41:39.168Z,100434.06
2023-04-25T12:46:58.630Z,100426.11
2023-04-25T12:52:25.085Z,100432.89
2023-04-25T12:58:00.647Z,100434.20
2023-04-25T13:03:27.785Z,100438.90
2023-04-25T13:08:54.287Z,100436.72
2023-04-25T13:14:20.347Z,100438.31
2023-04-25T13:19:46.246Z,100439.80
2023-04-25T13:25:12.159Z,100436.20
2023-04-25T13:30:38.033Z,100441.79
2023-04-25T13:36:04.569Z,100448.27
2023-04-25T13:41:30.388Z,100457.25
2023-04-25T13:46:56.350Z,100467.02
2023-04-25T13:52:22.174Z,100473.94
2023-04-25T13:57:48.548Z,100473.27
2023-04-25T14:03:14.625Z,100469.50
2023-04-25T14:08:40.647Z,100462.95
2023-04-25T14:14:06.680Z,100464.43
2023-04-25T14:19:32.577Z,100467.86
2023-04-25T14:24:58.313Z,100478.03
2023-04-25T14:30:24.359Z,100483.00
2023-04-25T14:35:50.381Z,100489.02
2023-04-25T14:41:16.296Z,100501.48
2023-04-25T14:46:42.236Z,100498.65
2023-04-25T14:52:08.210Z,100497.98
2023-04-25T14:57:34.280Z,100505.05
2023-04-25T15:03:00.503Z,100514.42
2023-04-25T15:08:26.699Z,100518.08
2023-04-25T15:13:53.486Z,100516.55
2023-04-25T15:19:19.731Z,100514.18
2023-04-25T15:24:45.848Z,100515.79
2023-04-25T15:30:11.894Z,100517.97
2023-04-25T15:35:37.741Z,100525.38
2023-04-25T15:41:04.820Z,100521.98
2023-04-25T15:46:31.415Z,100526.75
2023-04-25T15:51:57.552Z,100528.73
2023-04-25T15:57:23.595Z,100529.86
2023-04-25T16:02:49.954Z,100532.91
2023-04-25T16:08:15.938Z,100531.09
2023-04-25T16:13:40.355Z,100530.94
2023-04-25T16:19:06.267Z,100526.98
2023-04-25T16:24:32.454Z,100528.58
2023-04-25T16:29:51.359Z,100529.86
2023-04-25T16:34:59.811Z,100538.22
2023-04-25T16:40:27.182Z,100548.77
2023-04-25T16:45:46.729Z,100554.56
2023-04-25T16:51:12.710Z,100556.02
2023-04-25T16:56:38.507Z,100556.14
2023-04-25T17:02:04.706Z,100554.15
2023-04-25T17:07:30.737Z,100560.89
2023-04-25T17:12:56.588Z,100567.51
2023-04-25T17:18:15.136Z,100562.39
2023-04-25T17:23:33.846Z,100566.45
2023-04-25T17:28:59.792Z,100567.52
2023-04-25T17:34:25.574Z,100573.36
2023-04-25T17:39:51.442Z,100574.60
2023-04-25T17:45:17.220Z,100581.13
2023-04-25T17:50:43.315Z,100586.39
2023-04-25T17:56:25.371Z,100590.52
2023-04-25T18:01:52.704Z,100591.66
2023-04-25T18:07:18.566Z,100593.34
2023-04-25T18:12:44.321Z,100601.40
2023-04-25T18:18:10.432Z,100602.73
2023-04-25T18:23:36.414Z,100609.39
2023-04-25T18:29:02.488Z,100619.40
2023-04-25T18:34:20.839Z,100634.95
2023-04-25T18:39:48.503Z,100640.16
2023-04-25T18:45:14.236Z,100648.37
2023-04-25T18:50:40.419Z,100657.64
2023-04-25T18:56:06.176Z,100668.14
2023-04-25T19:01:32.659Z,100675.55
2023-04-25T19:06:51.402Z,100682.25
2023-04-25T19:12:17.438Z,100683.02
2023-04-25T19:17:43.304Z,100688.50
2023-04-25T19:23:09.295Z,100692.90
2023-04-25T19:28:35.107Z,100698.23
2023-04-25T19:34:01.035Z,100703.30
2023-04-25T19:39:27.259Z,100703.83
2023-04-25T19:44:53.202Z,100705.45
2023-04-25T19:50:18.947Z,100706.88
2023-04-25T19:55:44.983Z,100708.27
2023-04-25T20:01:10.747Z,100714.02
2023-04-25T20:06:36.645Z,100716.86
2023-04-25T20:12:02.420Z,100711.23
2023-04-25T20:17:28.609Z,100713.58
2023-04-25T20:22:54.533Z,100712.63
2023-04-25T20:28:20.353Z,100710.55
2023-04-25T20:33:46.211Z,100724.70
2023-04-25T20:39:12.161Z,100724.17
2023-04-25T20:44:32.021Z,100727.83
2023-04-25T20:49:57.863Z,100728.02
2023-04-25T20:55:16.687Z,100734.67
2023-04-25T21:00:43.051Z,100741.59
2023-04-25T21:05:59.088Z,100744.86
2023-04-25T21:11:18.518Z,100751.49
2023-04-25T21:16:44.698Z,100747.61
2023-04-25T21:22:10.569Z,100745.06
2023-04-25T21:27:36.737Z,100748.04
2023-04-25T21:33:02.659Z,100747.03
2023-04-25T21:38:28.483Z,100750.02
2023-04-25T21:43:54.356Z,100753.23
2023-04-25T21:49:20.409Z,100757.83
2023-04-25T21:54:39.963Z,100765.00
2023-04-25T22:00:05.955Z,100768.42
2023-04-25T22:05:24.041Z,100776.35
2023-04-25T22:10:49.866Z,100781.44
2023-04-25T22:16:15.672Z,100784.85
2023-04-25T22:21:41.642Z,100788.64
2023-04-25T22:27:07.960Z,100798.52
2023-04-25T22:32:33.865Z,100805.85
2023-04-25T22:38:01.306Z,100811.82
2023-04-25T22:43:27.271Z,100814.13
2023-04-25T22:48:53.422Z,100817.64
2023-04-25T22:54:19.578Z,100822.83
2023-04-25T22:59:45.580Z,100824.35
2023-04-25T23:05:10.126Z,100824.42
2023-04-25T23:10:36.000Z,100826.89
2023-04-25T23:16:02.275Z,100828.78
2023-04-25T23:21:31.443Z,100827.00
2023-04-25T23:26:57.425Z,100828.61
2023-04-25T23:32:23.260Z,100836.24
2023-04-25T23:37:49.148Z,100840.08
2023-04-25T23:43:14.918Z,100843.73
2023-04-25T23:48:40.698Z,100851.77
2023-04-25T23:54:06.432Z,100854.63
2023-04-25T23:59:32.255Z,100863.19
